Time;durP1;ratioP1;P1;durP2;ratioP2;P2;SDS_P1;SDS_P2;PMS_P1;PMS_P2;Temp;Humidity;BMP_temperature;BMP_pressure;BME280_temperature;BME280_humidity;BME280_pressure;Samples;Min_cycle;Max_cycle;Signal;HPM_P1;HPM_P2
2021/12/24 00:00:37;;;;;;;0.10;0.10;;;4.20;99.90;226.50;231333.00;;;;5035405;28;20199;-72
2021/12/24 00:03:05;;;;;;;0.10;0.10;;;4.20;99.90;226.50;231333.00;;;;5035161;28;20276;-72
2021/12/24 00:05:35;;;;;;;0.10;0.10;;;4.30;99.90;226.50;231333.00;;;;5043893;28;20534;-71
2021/12/24 00:08:05;;;;;;;0.10;0.10;;;4.30;99.90;226.50;231333.00;;;;5054344;28;20655;-73
2021/12/24 00:10:33;;;;;;;0.10;0.10;;;4.20;99.90;226.50;231333.00;;;;5054721;28;20275;-72
2021/12/24 00:13:06;;;;;;;0.05;0.05;;;4.30;99.90;226.50;231333.00;;;;5045727;28;20271;-73
2021/12/24 00:15:51;;;;;;;0.10;0.10;;;4.30;99.90;226.50;231333.00;;;;5054138;28;20202;-72
2021/12/24 00:18:31;;;;;;;0.10;0.10;;;4.30;99.90;226.50;231333.00;;;;5052758;28;20217;-73
2021/12/24 00:35:11;;;;;;;0.08;0.08;;;4.30;99.90;226.50;231333.00;;;;5053974;28;20689;-72
2021/12/24 00:37:41;;;;;;;0.10;0.10;;;4.30;99.90;226.50;231333.00;;;;5052663;28;20190;-72
2021/12/24 00:40:18;;;;;;;0.10;0.10;;;4.30;99.90;226.50;231333.00;;;;5034832;28;20195;-73
2021/12/24 00:42:50;;;;;;;0.10;0.10;;;4.30;99.90;226.50;231333.00;;;;5052773;28;20214;-73
2021/12/24 00:45:22;;;;;;;0.10;0.10;;;4.30;99.90;226.50;231333.00;;;;5052361;28;20668;-72
2021/12/24 00:47:51;;;;;;;0.10;0.10;;;4.30;99.90;226.50;231333.00;;;;5053403;28;20273;-73
2021/12/24 00:50:25;;;;;;;0.10;0.10;;;4.40;99.90;226.50;231333.00;;;;5023330;28;20206;-72
2021/12/24 00:52:57;;;;;;;0.10;0.10;;;4.40;99.90;226.50;231333.00;;;;5026160;28;20292;-72
2021/12/24 00:55:31;;;;;;;0.03;0.03;;;4.50;99.90;226.50;231333.00;;;;5045723;28;20195;-72
2021/12/24 00:58:01;;;;;;;0.10;0.10;;;4.50;99.90;226.50;231333.00;;;;5049927;28;20194;-72
2021/12/24 01:00:34;;;;;;;0.10;0.10;;;4.50;99.90;226.50;231333.00;;;;5038923;28;20199;-74
2021/12/24 01:03:06;;;;;;;0.10;0.10;;;4.50;99.90;226.50;231333.00;;;;5040088;28;20656;-73
2021/12/24 01:05:37;;;;;;;0.10;0.10;;;4.50;99.90;226.50;231333.00;;;;5022131;28;20223;-74
2021/12/24 01:08:08;;;;;;;0.10;0.10;;;4.60;99.90;226.50;231333.00;;;;5038260;28;20606;-74
2021/12/24 01:10:42;;;;;;;0.10;0.10;;;4.60;99.90;226.50;231333.00;;;;5032959;28;20237;-75
2021/12/24 01:13:10;;;;;;;0.10;0.10;;;4.60;99.90;226.50;231333.00;;;;5040881;28;20253;-74
2021/12/24 01:15:50;;;;;;;0.10;0.10;;;4.60;99.90;226.50;231333.00;;;;5053689;28;20198;-74
2021/12/24 01:18:20;;;;;;;0.10;0.10;;;4.70;99.90;226.50;231333.00;;;;5052782;28;20203;-74
2021/12/24 01:20:53;;;;;;;0.10;0.10;;;4.80;99.90;226.50;231333.00;;;;5039375;28;20203;-73
2021/12/24 01:23:32;;;;;;;0.10;0.10;;;4.80;99.90;226.50;231333.00;;;;5028277;28;20209;-74
2021/12/24 01:26:04;;;;;;;0.10;0.10;;;4.90;99.90;226.50;231333.00;;;;5040777;28;20668;-74
2021/12/24 01:29:01;;;;;;;0.10;0.10;;;5.00;99.90;226.50;231333.00;;;;5054920;28;20194;-75
2021/12/24 01:40:06;;;;;;;0.10;0.10;;;5.40;99.90;226.50;231333.00;;;;5030922;28;20190;-72
2021/12/24 01:42:43;;;;;;;0.10;0.10;;;5.40;99.90;226.50;231333.00;;;;5033726;28;20218;-74
2021/12/24 01:45:19;;;;;;;0.10;0.10;;;5.50;99.90;226.50;231333.00;;;;5029047;28;20194;-74
2021/12/24 01:47:49;;;;;;;0.10;0.10;;;5.50;99.90;226.50;231333.00;;;;5052233;28;20194;-74
2021/12/24 01:50:21;;;;;;;0.10;0.10;;;5.50;99.90;226.50;231333.00;;;;5036952;28;20206;-74
2021/12/24 01:52:51;;;;;;;0.10;0.10;;;5.60;99.90;226.50;231333.00;;;;5051268;28;20548;-73
2021/12/24 01:55:19;;;;;;;0.10;0.10;;;5.70;99.90;226.50;231333.00;;;;5028484;28;20191;-75
2021/12/24 01:57:49;;;;;;;0.10;0.10;;;5.70;99.90;226.50;231333.00;;;;5032510;28;20897;-74
2021/12/24 02:00:24;;;;;;;0.10;0.10;;;5.80;99.90;226.50;231333.00;;;;5039665;28;20203;-74
2021/12/24 02:02:52;;;;;;;0.00;0.00;;;5.80;99.90;226.50;231333.00;;;;5039742;28;20688;-74
2021/12/24 02:05:21;;;;;;;0.10;0.10;;;5.80;99.90;226.50;231333.00;;;;5039520;28;20200;-74
2021/12/24 02:07:49;;;;;;;0.10;0.10;;;5.80;99.90;226.50;231333.00;;;;5038903;28;20186;-74
2021/12/24 02:10:19;;;;;;;0.10;0.10;;;5.80;99.90;226.50;231333.00;;;;5042337;28;20702;-74
2021/12/24 02:12:50;;;;;;;0.10;0.10;;;5.80;99.90;226.50;231333.00;;;;5057531;28;20202;-74
2021/12/24 02:15:28;;;;;;;0.10;0.10;;;5.80;99.90;226.50;231333.00;;;;5044471;28;20210;-74
2021/12/24 02:18:21;;;;;;;0.10;0.10;;;5.80;99.90;226.50;231333.00;;;;5020091;28;20226;-74
2021/12/24 02:29:15;;;;;;;0.10;0.10;;;5.90;99.90;226.50;231333.00;;;;5036039;28;20294;-74
2021/12/24 02:31:44;;;;;;;0.10;0.10;;;5.90;99.90;226.50;231333.00;;;;5031160;28;20583;-74
2021/12/24 02:34:12;;;;;;;0.10;0.10;;;5.90;99.90;226.50;231333.00;;;;5020115;28;20295;-74
2021/12/24 02:36:41;;;;;;;0.10;0.10;;;5.90;99.90;226.50;231333.00;;;;5043632;28;20199;-74
2021/12/24 02:39:10;;;;;;;0.03;0.03;;;5.90;99.90;226.50;231333.00;;;;5057568;28;20252;-74
2021/12/24 02:41:38;;;;;;;0.10;0.10;;;5.90;99.90;226.50;231333.00;;;;5026344;28;20215;-74
2021/12/24 02:44:06;;;;;;;0.03;0.03;;;6.00;99.90;226.50;231333.00;;;;5034460;28;20198;-74
2021/12/24 02:46:41;;;;;;;0.10;0.10;;;6.00;99.90;226.50;231333.00;;;;5054185;28;20652;-74
2021/12/24 02:49:13;;;;;;;0.05;0.05;;;5.90;99.90;226.50;231333.00;;;;5049368;28;20193;-74
2021/12/24 02:54:28;;;;;;;0.10;0.10;;;5.90;99.90;226.50;231333.00;;;;5033700;28;20191;-74
2021/12/24 02:57:06;;;;;;;0.00;0.00;;;5.90;99.90;226.50;231333.00;;;;5035958;28;20205;-74
2021/12/24 02:59:37;;;;;;;0.10;0.10;;;5.90;99.90;226.50;231333.00;;;;5034456;28;20199;-74
2021/12/24 03:02:06;;;;;;;0.10;0.10;;;6.00;99.90;226.50;231333.00;;;;5029215;28;20565;-74
2021/12/24 03:04:33;;;;;;;0.08;0.08;;;6.00;99.90;226.50;231333.00;;;;5029447;28;20564;-76
2021/12/24 03:07:05;;;;;;;0.10;0.10;;;6.00;99.90;226.50;231333.00;;;;5033446;28;20298;-76
2021/12/24 03:09:34;;;;;;;0.10;0.10;;;6.00;99.90;226.50;231333.00;;;;5029952;28;20294;-74
2021/12/24 03:12:02;;;;;;;0.10;0.10;;;6.10;99.90;226.50;231333.00;;;;5044215;28;20238;-74
2021/12/24 03:14:30;;;;;;;0.10;0.10;;;6.10;99.90;226.50;231333.00;;;;5037621;28;20555;-74
2021/12/24 03:17:01;;;;;;;0.10;0.10;;;6.10;99.90;226.50;231333.00;;;;5054175;28;20202;-73
2021/12/24 03:19:32;;;;;;;0.05;0.05;;;6.10;99.90;226.50;231333.00;;;;5052357;28;20209;-74
2021/12/24 03:22:12;;;;;;;0.10;0.10;;;6.10;99.90;226.50;231333.00;;;;5021470;28;20219;-73
2021/12/24 03:24:41;;;;;;;0.10;0.10;;;6.20;99.90;226.50;231333.00;;;;5022244;28;20195;-74
2021/12/24 03:27:12;;;;;;;0.10;0.10;;;6.20;99.90;226.50;231333.00;;;;5031076;28;20256;-74
2021/12/24 03:29:40;;;;;;;0.08;0.08;;;6.20;99.90;226.50;231333.00;;;;5037897;28;20267;-74
2021/12/24 03:32:09;;;;;;;0.10;0.10;;;6.30;99.90;226.50;231333.00;;;;5041987;28;20215;-74
2021/12/24 03:34:37;;;;;;;0.10;0.10;;;6.30;99.90;226.50;231333.00;;;;5035781;28;20202;-74
2021/12/24 03:37:06;;;;;;;0.10;0.10;;;6.30;99.90;226.50;231333.00;;;;5057659;28;20276;-74
2021/12/24 03:39:37;;;;;;;0.10;0.10;;;6.30;99.90;226.50;231333.00;;;;5055826;28;20190;-74
2021/12/24 03:42:08;;;;;;;0.10;0.10;;;6.30;99.90;226.50;231333.00;;;;5044489;28;20353;-74
2021/12/24 03:44:42;;;;;;;0.10;0.10;;;6.30;99.90;226.50;231333.00;;;;5036562;28;20199;-74
2021/12/24 03:47:13;;;;;;;0.10;0.10;;;6.40;99.90;226.50;231333.00;;;;5036126;28;20195;-74
2021/12/24 03:49:55;;;;;;;0.00;0.00;;;6.40;99.90;226.50;231333.00;;;;5037794;28;20267;-73
2021/12/24 03:53:00;;;;;;;0.10;0.10;;;6.40;99.90;226.50;231333.00;;;;5025143;28;20321;-74
2021/12/24 03:55:26;;;;;;;0.10;0.10;;;6.40;99.90;226.50;231333.00;;;;5027850;28;20230;-73
2021/12/24 03:57:55;;;;;;;0.10;0.10;;;6.40;99.90;226.50;231333.00;;;;5054636;28;20566;-75
2021/12/24 04:00:42;;;;;;;0.10;0.10;;;6.40;99.90;226.50;231333.00;;;;5049141;28;20205;-74
2021/12/24 04:03:39;;;;;;;0.10;0.10;;;6.40;99.90;226.50;231333.00;;;;5044415;28;20195;-74
2021/12/24 04:06:36;;;;;;;0.10;0.10;;;6.40;99.90;226.50;231333.00;;;;4976710;28;20558;-74
2021/12/24 04:09:47;;;;;;;0.10;0.10;;;6.40;99.90;226.50;231333.00;;;;5047671;28;20277;-74
2021/12/24 04:12:37;;;;;;;0.00;0.00;;;6.40;99.90;226.50;231333.00;;;;5056240;28;20258;-75
2021/12/24 04:15:07;;;;;;;0.10;0.10;;;6.50;99.90;226.50;231333.00;;;;5055134;28;20190;-75
2021/12/24 04:17:39;;;;;;;0.10;0.10;;;6.50;99.90;226.50;231333.00;;;;5027155;28;20195;-74
2021/12/24 04:25:39;;;;;;;0.10;0.10;;;6.60;99.90;226.50;231333.00;;;;5025312;28;20660;-75
2021/12/24 04:28:08;;;;;;;0.10;0.10;;;6.70;99.90;226.50;231333.00;;;;5038857;28;20195;-74
2021/12/24 04:30:43;;;;;;;0.10;0.10;;;6.70;99.90;226.50;231333.00;;;;5037922;28;20245;-74
2021/12/24 04:33:17;;;;;;;0.10;0.10;;;6.70;99.90;226.50;231333.00;;;;5030624;28;20233;-76
2021/12/24 04:35:56;;;;;;;0.10;0.10;;;6.70;99.90;226.50;231333.00;;;;5040882;28;20261;-74
2021/12/24 04:38:35;;;;;;;0.00;0.00;;;6.70;99.90;226.50;231333.00;;;;5036050;28;20229;-74
2021/12/24 04:52:43;;;;;;;0.10;0.10;;;6.70;99.90;226.50;231333.00;;;;5016861;28;20245;-76
2021/12/24 05:01:24;;;;;;;0.10;0.10;;;6.90;99.90;226.50;231333.00;;;;4995252;28;20549;-75
2021/12/24 05:03:54;;;;;;;0.10;0.10;;;6.90;99.90;226.50;231333.00;;;;4980080;28;20204;-74
2021/12/24 05:06:32;;;;;;;0.10;0.10;;;6.90;99.90;226.50;231333.00;;;;5023684;28;20222;-74
2021/12/24 05:09:07;;;;;;;0.00;0.00;;;6.90;99.90;226.50;231333.00;;;;5056183;28;20194;-75
2021/12/24 05:11:35;;;;;;;0.00;0.00;;;6.90;99.90;226.50;231333.00;;;;5056735;28;20214;-74
2021/12/24 05:14:05;;;;;;;0.00;0.00;;;6.90;99.90;226.50;231333.00;;;;5050890;28;20646;-74
2021/12/24 05:16:48;;;;;;;0.10;0.10;;;6.90;99.90;226.50;231333.00;;;;5019497;28;20219;-74
2021/12/24 05:22:30;;;;;;;0.00;0.00;;;6.90;99.90;226.50;231333.00;;;;5037715;28;20242;-74
2021/12/24 05:25:04;;;;;;;0.10;0.10;;;6.90;99.90;226.50;231333.00;;;;5028874;28;20194;-74
2021/12/24 05:27:33;;;;;;;0.05;0.05;;;7.00;99.90;226.50;231333.00;;;;5019716;28;20203;-74
2021/12/24 05:30:01;;;;;;;0.10;0.10;;;6.90;99.90;226.50;231333.00;;;;5037338;28;20205;-74
2021/12/24 05:32:30;;;;;;;0.10;0.10;;;7.00;99.90;226.50;231333.00;;;;5030037;28;20250;-74
2021/12/24 05:34:59;;;;;;;0.00;0.00;;;7.00;99.90;226.50;231333.00;;;;5037202;28;20202;-73
2021/12/24 05:37:27;;;;;;;0.08;0.08;;;6.90;99.90;226.50;231333.00;;;;5058361;28;20201;-75
2021/12/24 05:39:55;;;;;;;0.10;0.10;;;6.90;99.90;226.50;231333.00;;;;5057576;28;20194;-74
2021/12/24 05:42:31;;;;;;;0.10;0.10;;;6.90;99.90;226.50;231333.00;;;;5053250;28;20619;-73
2021/12/24 05:45:04;;;;;;;0.10;0.10;;;6.90;99.90;226.50;231333.00;;;;5032824;28;20221;-74
2021/12/24 05:47:55;;;;;;;0.03;0.03;;;6.90;99.90;226.50;231333.00;;;;5052295;28;20194;-74
2021/12/24 05:50:25;;;;;;;0.10;0.10;;;6.90;99.90;226.50;231333.00;;;;5054631;28;20281;-74
2021/12/24 05:53:28;;;;;;;0.08;0.08;;;6.90;99.90;226.50;231333.00;;;;5057100;28;20706;-74
2021/12/24 05:56:13;;;;;;;0.10;0.10;;;6.90;99.90;226.50;231333.00;;;;5049665;28;20198;-76
2021/12/24 05:58:44;;;;;;;0.00;0.00;;;6.90;99.90;226.50;231333.00;;;;5035763;28;20205;-74
2021/12/24 06:01:12;;;;;;;0.10;0.10;;;6.90;99.90;226.50;231333.00;;;;5031246;28;20198;-74
2021/12/24 06:03:47;;;;;;;0.00;0.00;;;6.90;99.90;226.50;231333.00;;;;5049768;28;20613;-74
2021/12/24 06:06:16;;;;;;;0.10;0.10;;;6.90;99.90;226.50;231333.00;;;;5058216;28;20240;-74
2021/12/24 06:08:44;;;;;;;0.10;0.10;;;7.00;99.90;226.50;231333.00;;;;5039547;28;20195;-74
2021/12/24 06:11:12;;;;;;;0.03;0.03;;;7.00;99.90;226.50;231333.00;;;;5053252;28;20256;-74
2021/12/24 06:13:41;;;;;;;0.10;0.10;;;6.90;99.90;226.50;231333.00;;;;5057670;28;20632;-74
2021/12/24 06:16:10;;;;;;;0.10;0.10;;;7.00;99.90;226.50;231333.00;;;;5056225;28;20320;-74
2021/12/24 06:18:40;;;;;;;0.10;0.10;;;7.00;99.90;226.50;231333.00;;;;5041534;28;20528;-74
2021/12/24 06:21:09;;;;;;;0.10;0.10;;;7.10;99.90;226.50;231333.00;;;;5037966;28;20194;-74
2021/12/24 06:23:39;;;;;;;0.10;0.10;;;7.10;99.90;226.50;231333.00;;;;5038030;28;20199;-74
2021/12/24 06:26:08;;;;;;;0.05;0.05;;;7.10;99.90;226.50;231333.00;;;;5054967;28;20746;-74
2021/12/24 06:28:37;;;;;;;0.10;0.10;;;7.10;99.90;226.50;231333.00;;;;5057159;28;20217;-73
2021/12/24 06:31:06;;;;;;;0.10;0.10;;;7.10;99.90;226.50;231333.00;;;;5056090;28;20260;-73
2021/12/24 06:33:35;;;;;;;0.10;0.10;;;7.10;99.90;226.50;231333.00;;;;5036948;28;20652;-74
2021/12/24 06:36:06;;;;;;;0.10;0.10;;;7.10;99.90;226.50;231333.00;;;;5037932;28;20191;-74
2021/12/24 06:38:34;;;;;;;0.10;0.10;;;7.10;99.90;226.50;231333.00;;;;5040256;28;20190;-74
2021/12/24 06:41:04;;;;;;;0.10;0.10;;;7.10;99.90;226.50;231333.00;;;;5056223;28;20194;-73
2021/12/24 06:43:33;;;;;;;0.10;0.10;;;7.20;99.90;226.50;231333.00;;;;5057238;28;20290;-73
2021/12/24 06:46:03;;;;;;;0.10;0.10;;;7.20;99.90;226.50;231333.00;;;;5053092;28;20245;-73
2021/12/24 06:48:31;;;;;;;0.10;0.10;;;7.20;99.90;226.50;231333.00;;;;5039747;28;20203;-74
2021/12/24 06:50:59;;;;;;;0.10;0.10;;;7.20;99.90;226.50;231333.00;;;;5058164;28;20588;-74
2021/12/24 06:53:26;;;;;;;0.10;0.10;;;7.30;99.90;226.50;231333.00;;;;5057397;28;20222;-73
2021/12/24 06:55:55;;;;;;;0.03;0.03;;;7.20;99.90;226.50;231333.00;;;;5038320;28;20199;-74
2021/12/24 06:58:28;;;;;;;0.08;0.08;;;7.30;99.90;226.50;231333.00;;;;5032292;28;20627;-74
2021/12/24 07:00:58;;;;;;;0.10;0.10;;;7.30;99.90;226.50;231333.00;;;;5027757;28;20219;-76
2021/12/24 07:03:27;;;;;;;0.10;0.10;;;7.30;99.90;226.50;231333.00;;;;5008077;28;20552;-76
2021/12/24 07:05:55;;;;;;;0.10;0.10;;;7.30;99.90;226.50;231333.00;;;;5012452;28;20303;-76
2021/12/24 07:08:24;;;;;;;0.10;0.10;;;7.30;99.90;226.50;231333.00;;;;5012379;28;20192;-76
2021/12/24 07:10:53;;;;;;;0.08;0.08;;;7.40;99.90;226.50;231333.00;;;;5011952;28;20271;-76
2021/12/24 07:13:21;;;;;;;0.05;0.05;;;7.30;99.90;226.50;231333.00;;;;5011159;28;20212;-76
2021/12/24 07:15:49;;;;;;;0.10;0.10;;;7.30;99.90;226.50;231333.00;;;;5010217;28;20195;-76
2021/12/24 07:18:18;;;;;;;0.10;0.10;;;7.30;99.90;226.50;231333.00;;;;5011351;28;20195;-75
2021/12/24 07:20:46;;;;;;;0.10;0.10;;;7.30;99.90;226.50;231333.00;;;;5011579;28;20336;-76
2021/12/24 07:23:14;;;;;;;0.10;0.10;;;7.40;99.90;226.50;231333.00;;;;5011612;28;20731;-76
2021/12/24 07:25:42;;;;;;;0.10;0.10;;;7.30;99.90;226.50;231333.00;;;;5011239;28;20262;-76
2021/12/24 07:28:10;;;;;;;0.10;0.10;;;7.30;99.90;226.50;231333.00;;;;5011331;28;20602;-76
2021/12/24 07:30:38;;;;;;;0.10;0.10;;;7.30;99.90;226.50;231333.00;;;;5011157;28;20273;-76
2021/12/24 07:33:06;;;;;;;0.10;0.10;;;7.40;99.90;226.50;231333.00;;;;5011464;28;20215;-76
2021/12/24 07:35:36;;;;;;;0.10;0.10;;;7.40;99.90;226.50;231333.00;;;;5011317;28;20195;-76
2021/12/24 07:38:04;;;;;;;0.00;0.00;;;7.40;99.90;226.50;231333.00;;;;5011371;28;20196;-76
2021/12/24 07:40:32;;;;;;;0.10;0.10;;;7.40;99.90;226.50;231333.00;;;;5011488;28;20224;-76
2021/12/24 07:43:00;;;;;;;0.10;0.10;;;7.40;99.90;226.50;231333.00;;;;5010213;28;20670;-76
2021/12/24 07:45:28;;;;;;;0.10;0.10;;;7.40;99.90;226.50;231333.00;;;;5009541;28;20204;-75
2021/12/24 07:48:07;;;;;;;0.10;0.10;;;7.50;99.90;226.50;231333.00;;;;5011541;28;20653;-76
2021/12/24 07:53:24;;;;;;;0.10;0.10;;;7.50;99.90;226.50;231333.00;;;;5011394;28;20774;-75
2021/12/24 07:55:54;;;;;;;0.10;0.10;;;7.60;99.90;226.50;231333.00;;;;5011369;28;20274;-76
2021/12/24 07:58:22;;;;;;;0.10;0.10;;;7.60;99.90;226.50;231333.00;;;;5011310;28;20626;-76
2021/12/24 08:00:51;;;;;;;0.10;0.10;;;7.60;99.90;226.50;231333.00;;;;5009965;28;20227;-76
2021/12/24 08:03:20;;;;;;;0.10;0.10;;;7.60;99.90;226.50;231333.00;;;;5010906;28;20200;-76
2021/12/24 08:05:49;;;;;;;0.10;0.10;;;7.60;99.90;226.50;231333.00;;;;5005985;28;20739;-76
2021/12/24 08:08:17;;;;;;;0.10;0.10;;;7.60;99.90;226.50;231333.00;;;;5011111;28;20204;-76
2021/12/24 08:10:45;;;;;;;0.00;0.00;;;7.60;99.90;226.50;231333.00;;;;5011406;28;20575;-76
2021/12/24 08:13:13;;;;;;;0.00;0.00;;;7.60;99.90;226.50;231333.00;;;;5013700;28;20668;-76
2021/12/24 08:15:48;;;;;;;0.00;0.00;;;7.60;99.90;226.50;231333.00;;;;5014745;28;20206;-76
2021/12/24 08:18:16;;;;;;;0.00;0.00;;;7.60;99.90;226.50;231333.00;;;;5015228;28;20279;-77
2021/12/24 08:20:44;;;;;;;0.10;0.10;;;7.60;99.90;226.50;231333.00;;;;5014750;28;20215;-76
2021/12/24 08:23:13;;;;;;;0.10;0.10;;;7.60;99.90;226.50;231333.00;;;;5014064;28;20196;-76
2021/12/24 08:25:41;;;;;;;0.10;0.10;;;7.60;99.90;226.50;231333.00;;;;5014833;28;20199;-76
2021/12/24 08:28:09;;;;;;;0.10;0.10;;;7.70;99.90;226.50;231333.00;;;;5014592;28;20198;-76
2021/12/24 08:30:37;;;;;;;0.10;0.10;;;7.60;99.90;226.50;231333.00;;;;5014648;28;20216;-76
2021/12/24 08:33:06;;;;;;;0.05;0.05;;;7.60;99.90;226.50;231333.00;;;;5015198;28;20605;-76
2021/12/24 08:35:35;;;;;;;0.10;0.10;;;7.60;99.90;226.50;231333.00;;;;5006883;28;20578;-76
2021/12/24 08:38:03;;;;;;;0.10;0.10;;;7.60;99.90;226.50;231333.00;;;;4997300;28;20207;-76
2021/12/24 08:40:32;;;;;;;0.10;0.10;;;7.60;99.90;226.50;231333.00;;;;5013294;28;20231;-76
2021/12/24 08:43:00;;;;;;;0.10;0.10;;;7.60;99.90;226.50;231333.00;;;;5014655;28;20199;-76
2021/12/24 08:45:29;;;;;;;0.10;0.10;;;7.60;99.90;226.50;231333.00;;;;5014369;28;20204;-76
2021/12/24 08:47:57;;;;;;;0.10;0.10;;;7.60;99.90;226.50;231333.00;;;;5015714;28;20192;-77
2021/12/24 08:50:25;;;;;;;0.10;0.10;;;7.60;99.90;226.50;231333.00;;;;5015435;28;20219;-76
2021/12/24 08:52:53;;;;;;;0.10;0.10;;;7.50;99.90;226.50;231333.00;;;;4997374;28;20266;-76
2021/12/24 08:55:21;;;;;;;0.10;0.10;;;7.60;99.90;226.50;231333.00;;;;5014471;28;20219;-76
2021/12/24 08:57:50;;;;;;;0.10;0.10;;;7.60;99.90;226.50;231333.00;;;;5012652;28;20200;-76
2021/12/24 09:00:20;;;;;;;0.10;0.10;;;7.60;99.90;226.50;231333.00;;;;5014326;28;20269;-76
2021/12/24 09:02:49;;;;;;;0.10;0.10;;;7.60;99.90;226.50;231333.00;;;;4996399;28;20250;-76
2021/12/24 09:05:17;;;;;;;0.10;0.10;;;7.60;99.90;226.50;231333.00;;;;4996334;28;20546;-76
2021/12/24 09:07:45;;;;;;;0.10;0.10;;;7.60;99.90;226.50;231333.00;;;;5013769;28;20188;-76
2021/12/24 09:10:14;;;;;;;0.10;0.10;;;7.60;99.90;226.50;231333.00;;;;5013591;28;20278;-76
2021/12/24 09:12:43;;;;;;;0.10;0.10;;;7.60;99.90;226.50;231333.00;;;;5013635;28;20192;-76
2021/12/24 09:15:15;;;;;;;0.10;0.10;;;7.60;99.90;226.50;231333.00;;;;5013459;28;20639;-76
2021/12/24 09:17:46;;;;;;;0.10;0.10;;;7.60;99.90;226.50;231333.00;;;;5013631;28;20239;-76
2021/12/24 09:20:21;;;;;;;0.10;0.10;;;7.60;99.90;226.50;231333.00;;;;5013307;28;20219;-76
2021/12/24 09:22:49;;;;;;;0.10;0.10;;;7.60;99.90;226.50;231333.00;;;;5013893;28;20199;-76
2021/12/24 09:25:19;;;;;;;0.10;0.10;;;7.60;99.90;226.50;231333.00;;;;5014095;28;20220;-76
2021/12/24 09:27:47;;;;;;;0.10;0.10;;;7.60;99.90;226.50;231333.00;;;;5015290;28;20216;-76
2021/12/24 09:30:17;;;;;;;0.10;0.10;;;7.60;99.90;226.50;231333.00;;;;5009816;28;20231;-77
2021/12/24 09:32:45;;;;;;;0.10;0.10;;;7.60;99.90;226.50;231333.00;;;;5013167;28;20196;-77
2021/12/24 09:35:14;;;;;;;0.10;0.10;;;7.70;99.90;226.50;231333.00;;;;5013032;28;20220;-76
2021/12/24 09:37:43;;;;;;;0.10;0.10;;;7.70;99.90;226.50;231333.00;;;;5012834;28;20199;-76
2021/12/24 09:40:14;;;;;;;0.00;0.00;;;7.70;99.90;226.50;231333.00;;;;5006980;28;20279;-76
2021/12/24 09:42:43;;;;;;;0.10;0.10;;;7.70;99.90;226.50;231333.00;;;;5013620;28;20254;-74
2021/12/24 09:45:12;;;;;;;0.08;0.08;;;7.70;99.90;226.50;231333.00;;;;5012700;28;20196;-74
2021/12/24 09:47:43;;;;;;;0.00;0.00;;;7.70;99.90;226.50;231333.00;;;;5012697;28;20184;-74
2021/12/24 09:50:15;;;;;;;0.10;0.10;;;7.70;99.90;226.50;231333.00;;;;5012610;28;20287;-73
2021/12/24 09:52:45;;;;;;;0.10;0.10;;;7.70;99.90;226.50;231333.00;;;;5011877;28;20235;-74
2021/12/24 09:55:18;;;;;;;0.10;0.10;;;7.70;99.90;226.50;231333.00;;;;5012587;28;20278;-74
2021/12/24 09:57:46;;;;;;;0.10;0.10;;;7.70;99.90;226.50;231333.00;;;;5012616;28;20196;-74
2021/12/24 10:00:18;;;;;;;0.00;0.00;;;7.80;99.90;226.50;231333.00;;;;5012896;28;20235;-73
2021/12/24 10:02:52;;;;;;;0.10;0.10;;;7.80;99.90;226.50;231333.00;;;;5012634;28;20199;-74
2021/12/24 10:05:31;;;;;;;0.10;0.10;;;7.80;99.90;226.50;231333.00;;;;5012965;28;20233;-73
2021/12/24 10:08:08;;;;;;;0.10;0.10;;;7.70;99.90;226.50;231333.00;;;;5013633;28;20253;-75
2021/12/24 10:10:42;;;;;;;0.10;0.10;;;7.70;99.90;226.50;231333.00;;;;5009876;28;20696;-73
2021/12/24 10:13:34;;;;;;;0.10;0.10;;;7.70;99.90;226.50;231333.00;;;;5013327;28;20340;-74
2021/12/24 10:16:05;;;;;;;0.10;0.10;;;7.70;99.90;226.50;231333.00;;;;5016853;28;20238;-74
2021/12/24 10:18:42;;;;;;;0.00;0.00;;;7.70;99.90;226.50;231333.00;;;;5018700;28;20627;-73
2021/12/24 10:21:14;;;;;;;0.08;0.08;;;7.70;99.90;226.50;231333.00;;;;5010822;28;20199;-73
2021/12/24 10:23:52;;;;;;;0.10;0.10;;;7.70;99.90;226.50;231333.00;;;;5013111;28;20656;-74
2021/12/24 10:26:26;;;;;;;0.10;0.10;;;7.70;99.90;226.50;231333.00;;;;5012707;28;20207;-74
2021/12/24 10:29:05;;;;;;;0.10;0.10;;;7.60;99.90;226.50;231333.00;;;;5012613;28;20215;-74
2021/12/24 10:31:43;;;;;;;0.10;0.10;;;7.70;99.90;226.50;231333.00;;;;5012482;28;20265;-73
2021/12/24 10:34:23;;;;;;;0.10;0.10;;;7.70;99.90;226.50;231333.00;;;;5011897;28;20198;-74
2021/12/24 10:37:13;;;;;;;0.00;0.00;;;7.70;99.90;226.50;231333.00;;;;5012112;28;20196;-73
2021/12/24 10:39:48;;;;;;;0.10;0.10;;;7.70;99.90;226.50;231333.00;;;;5005265;28;20319;-74
2021/12/24 10:42:27;;;;;;;0.10;0.10;;;7.70;99.90;226.50;231333.00;;;;5011951;28;20203;-74
2021/12/24 10:44:58;;;;;;;0.05;0.05;;;7.60;99.90;226.50;231333.00;;;;5012052;28;20195;-75
2021/12/24 10:47:29;;;;;;;0.10;0.10;;;7.70;99.90;226.50;231333.00;;;;5011954;28;20618;-73
2021/12/24 10:50:11;;;;;;;0.10;0.10;;;7.60;99.90;226.50;231333.00;;;;5006716;28;20227;-73
2021/12/24 10:53:10;;;;;;;0.10;0.10;;;7.60;99.90;226.50;231333.00;;;;5011696;28;20253;-73
2021/12/24 10:55:47;;;;;;;0.05;0.05;;;7.60;99.90;226.50;231333.00;;;;5011487;28;20216;-73
2021/12/24 10:58:20;;;;;;;0.10;0.10;;;7.70;99.90;226.50;231333.00;;;;5005106;28;20255;-73
2021/12/24 11:00:53;;;;;;;0.10;0.10;;;7.60;99.90;226.50;231333.00;;;;5006642;28;20268;-73
2021/12/24 11:03:23;;;;;;;0.10;0.10;;;7.70;99.90;226.50;231333.00;;;;5013037;28;20544;-73
2021/12/24 11:05:54;;;;;;;0.10;0.10;;;7.70;99.90;226.50;231333.00;;;;5011789;28;20238;-73
2021/12/24 11:08:27;;;;;;;0.03;0.03;;;7.70;99.90;226.50;231333.00;;;;5006904;28;20208;-72
2021/12/24 11:11:00;;;;;;;0.10;0.10;;;7.70;99.90;226.50;231333.00;;;;5010610;28;20189;-73
2021/12/24 11:13:38;;;;;;;0.10;0.10;;;7.70;99.90;226.50;231333.00;;;;5008105;28;20195;-73
2021/12/24 11:16:08;;;;;;;0.10;0.10;;;7.80;99.90;226.50;231333.00;;;;5011470;28;20218;-72
2021/12/24 11:18:40;;;;;;;0.10;0.10;;;7.70;99.90;226.50;231333.00;;;;5005567;28;20241;-73
2021/12/24 11:21:13;;;;;;;0.10;0.10;;;7.80;99.90;226.50;231333.00;;;;5011479;28;20222;-73
2021/12/24 11:23:43;;;;;;;0.05;0.05;;;7.80;99.90;226.50;231333.00;;;;5012170;28;20196;-73
2021/12/24 11:26:16;;;;;;;0.10;0.10;;;7.80;99.90;226.50;231333.00;;;;5011156;28;20203;-73
2021/12/24 11:28:45;;;;;;;0.10;0.10;;;7.90;99.90;226.50;231333.00;;;;4993648;28;20254;-73
2021/12/24 11:31:17;;;;;;;0.05;0.05;;;7.90;99.90;226.50;231333.00;;;;5011037;28;20684;-75
2021/12/24 11:33:47;;;;;;;0.10;0.10;;;7.90;99.90;226.50;231333.00;;;;5011635;28;20196;-75
2021/12/24 11:36:19;;;;;;;0.10;0.10;;;7.90;99.90;226.50;231333.00;;;;5010795;28;20223;-75
2021/12/24 11:38:51;;;;;;;0.10;0.10;;;7.90;99.90;226.50;231333.00;;;;5011432;28;20219;-75
2021/12/24 11:41:25;;;;;;;0.10;0.10;;;8.00;99.90;226.50;231333.00;;;;5011357;28;20199;-75
2021/12/24 11:43:56;;;;;;;0.10;0.10;;;8.00;99.90;226.50;231333.00;;;;5004584;28;20200;-74
2021/12/24 11:46:27;;;;;;;0.08;0.08;;;8.00;99.90;226.50;231333.00;;;;5011178;28;20681;-74
2021/12/24 11:48:56;;;;;;;0.10;0.10;;;8.00;99.90;226.50;231333.00;;;;4989426;28;20266;-72
2021/12/24 11:51:29;;;;;;;0.00;0.00;;;8.00;99.90;226.50;231333.00;;;;5015349;28;20895;-74
2021/12/24 11:54:02;;;;;;;0.10;0.10;;;8.00;99.90;226.50;231333.00;;;;5014987;28;20199;-74
2021/12/24 11:56:42;;;;;;;0.10;0.10;;;8.00;99.90;226.50;231333.00;;;;5014823;28;20530;-74
2021/12/24 11:59:10;;;;;;;0.10;0.10;;;8.00;99.90;226.50;231333.00;;;;5006637;28;20635;-75
2021/12/24 12:01:42;;;;;;;0.08;0.08;;;8.00;99.90;226.50;231333.00;;;;5014782;28;20199;-74
2021/12/24 12:04:14;;;;;;;0.08;0.08;;;8.00;99.90;226.50;231333.00;;;;5014783;28;20271;-75
2021/12/24 12:06:43;;;;;;;0.10;0.10;;;8.00;99.90;226.50;231333.00;;;;5007096;28;20254;-75
2021/12/24 12:09:12;;;;;;;0.00;0.00;;;7.90;99.90;226.50;231333.00;;;;5014764;28;20265;-74
2021/12/24 12:11:44;;;;;;;0.00;0.00;;;7.90;99.90;226.50;231333.00;;;;5015238;28;20274;-75